Time;durP1;ratioP1;P1;durP2;ratioP2;P2;SDS_P1;SDS_P2;PMS_P1;PMS_P2;Temp;Humidity;BMP_temperature;BMP_pressure;BME280_temperature;BME280_humidity;BME280_pressure;Samples;Min_cycle;Max_cycle;Signal;HPM_P1;HPM_P2
2022/06/02 00:04:53;;;;;;;2.30;1.48;;;;;;;;;;20910904;28;20049;-67
2022/06/02 00:15:01;;;;;;;;;;;24.10;42.60;;;;;;20911355;28;20051;-62
2022/06/02 00:25:26;;;;;;;4.40;1.67;;;24.10;42.80;;;;;;20910082;28;19924;-61
2022/06/02 00:35:46;;;;;;;5.72;3.03;;;24.10;43.10;;;;;;20909993;28;20485;-61
2022/06/02 00:45:57;;;;;;;9.68;4.03;;;24.10;43.20;;;;;;20916882;28;20132;-62
2022/06/02 01:06:52;;;;;;;2.55;1.33;;;23.90;43.70;;;;;;20923093;28;20073;-65
2022/06/02 01:17:26;;;;;;;5.28;1.65;;;23.80;44.10;;;;;;20922640;28;20386;-62
2022/06/02 01:27:31;;;;;;;8.18;4.68;;;23.80;44.00;;;;;;20922316;28;20049;-64
2022/06/02 01:37:50;;;;;;;;;;;23.60;44.90;;;;;;20921748;28;20053;-61
2022/06/02 01:48:16;;;;;;;10.50;5.97;;;23.40;45.00;;;;;;20920058;28;19928;-68
2022/06/02 01:59:05;;;;;;;7.80;4.30;;;23.30;45.10;;;;;;20893295;28;20108;-67
2022/06/02 02:09:27;;;;;;;4.85;3.13;;;23.20;45.40;;;;;;20664776;28;20050;-66
2022/06/02 02:19:58;;;;;;;3.17;1.20;;;23.20;45.40;;;;;;20663908;28;20050;-69
2022/06/02 02:30:06;;;;;;;3.78;1.13;;;23.10;45.10;;;;;;20398088;28;20048;-62
2022/06/02 02:40:22;;;;;;;2.40;1.40;;;23.00;45.40;;;;;;20461959;28;20149;-62
2022/06/02 02:51:14;;;;;;;5.80;1.90;;;22.70;46.70;;;;;;20664263;28;20054;-62
2022/06/02 03:01:45;;;;;;;2.07;1.27;;;22.40;47.10;;;;;;20574911;28;20050;-69
2022/06/02 03:11:53;;;;;;;3.80;1.85;;;22.20;47.70;;;;;;20739141;28;20418;-60
2022/06/02 03:22:26;;;;;;;3.55;1.48;;;21.70;48.40;;;;;;20741219;28;20060;-60
2022/06/02 03:32:36;;;;;;;;;;;21.60;48.80;;;;;;20688007;28;20074;-61
2022/06/02 03:42:47;;;;;;;4.35;1.92;;;21.30;49.30;;;;;;20739912;28;19928;-61
2022/06/02 03:53:09;;;;;;;7.82;1.85;;;21.30;49.50;;;;;;20740529;28;20088;-62
2022/06/02 04:03:33;;;;;;;3.17;1.52;;;21.20;49.60;;;;;;20785467;28;20045;-65
2022/06/02 04:13:43;;;;;;;6.95;1.70;;;21.20;49.70;;;;;;20913647;28;20423;-60
2022/06/02 04:24:19;;;;;;;4.10;1.83;;;20.90;50.40;;;;;;20925517;28;20049;-62
2022/06/02 04:34:50;;;;;;;5.15;1.85;;;21.00;50.30;;;;;;20926925;28;20095;-64
2022/06/02 04:45:21;;;;;;;5.70;2.00;;;20.80;50.70;;;;;;20927788;28;20052;-60
2022/06/02 04:55:26;;;;;;;3.65;1.90;;;20.70;51.00;;;;;;20926387;28;20052;-60
2022/06/02 05:05:46;;;;;;;5.05;1.90;;;20.50;51.60;;;;;;20923876;28;20053;-70
2022/06/02 05:16:11;;;;;;;6.75;2.00;;;20.50;51.50;;;;;;20922925;28;20068;-70
2022/06/02 05:27:05;;;;;;;3.65;1.60;;;20.50;51.70;;;;;;20923191;28;20045;-61
2022/06/02 05:37:22;;;;;;;4.80;1.90;;;20.50;51.90;;;;;;20911833;28;20057;-68
2022/06/02 05:47:44;;;;;;;6.38;2.13;;;20.70;52.00;;;;;;20911988;28;20432;-61
2022/06/02 05:58:00;;;;;;;7.97;2.80;;;20.60;52.50;;;;;;20910396;28;20056;-66
2022/06/02 06:08:17;;;;;;;4.70;2.00;;;20.80;52.20;;;;;;20918181;28;20153;-71
2022/06/02 06:18:43;;;;;;;5.60;2.00;;;21.10;51.70;;;;;;20918348;28;20461;-70
2022/06/02 06:29:23;;;;;;;8.10;3.95;;;21.20;51.30;;;;;;20916984;28;20063;-70
2022/06/02 06:39:40;;;;;;;4.07;2.20;;;21.40;51.40;;;;;;20907251;28;20131;-69
2022/06/02 06:49:51;;;;;;;10.82;3.03;;;21.60;51.10;;;;;;20906634;28;20045;-63
2022/06/02 06:59:55;;;;;;;10.50;2.50;;;21.90;50.40;;;;;;20902298;28;20057;-58
2022/06/02 07:10:13;;;;;;;6.70;3.45;;;22.30;49.40;;;;;;20906975;28;20062;-59
2022/06/02 07:20:46;;;;;;;9.77;3.33;;;23.20;47.40;;;;;;20911709;28;20048;-58
2022/06/02 07:31:33;;;;;;;5.28;2.10;;;23.70;46.20;;;;;;20820370;28;20802;-63
2022/06/02 07:42:09;;;;;;;7.60;2.15;;;23.90;45.30;;;;;;20819512;28;20049;-58
2022/06/02 07:52:10;;;;;;;5.47;2.22;;;24.50;43.90;;;;;;20819520;28;20058;-61
2022/06/02 08:02:18;;;;;;;5.90;2.03;;;24.70;44.40;;;;;;20864957;28;20037;-65
2022/06/02 08:12:56;;;;;;;8.60;3.72;;;24.90;44.00;;;;;;20927242;28;20309;-63
2022/06/02 08:23:25;;;;;;;5.60;1.90;;;24.90;43.50;;;;;;20834712;28;20052;-63
2022/06/02 08:33:33;;;;;;;4.93;2.70;;;24.90;43.40;;;;;;20832824;28;20057;-65
2022/06/02 08:44:16;;;;;;;6.32;1.95;;;24.90;43.00;;;;;;20831055;28;20497;-55
2022/06/02 08:54:43;;;;;;;10.73;5.72;;;25.20;42.50;;;;;;20855584;28;20052;-68
2022/06/02 09:05:18;;;;;;;4.03;1.38;;;25.40;42.40;;;;;;20922794;28;20107;-70
2022/06/02 09:15:22;;;;;;;8.50;4.03;;;25.40;42.50;;;;;;20923273;28;20045;-70
2022/06/02 09:25:52;;;;;;;4.22;1.35;;;25.70;41.70;;;;;;20922151;28;20056;-59
2022/06/02 09:36:29;;;;;;;3.97;1.50;;;25.80;41.40;;;;;;20921682;28;20056;-71
2022/06/02 09:46:46;;;;;;;6.07;1.50;;;25.90;41.40;;;;;;20920921;28;20047;-60
2022/06/02 09:57:04;;;;;;;3.58;1.50;;;26.00;40.70;;;;;;20926942;28;20044;-63
2022/06/02 10:07:36;;;;;;;4.95;2.00;;;26.30;40.50;;;;;;20921488;28;20045;-68
2022/06/02 10:17:47;;;;;;;4.70;1.25;;;26.50;44.00;;;;;;20917059;28;20056;-67
2022/06/02 10:27:48;;;;;;;15.60;12.50;;;26.30;42.10;;;;;;20917577;28;20052;-60
2022/06/02 10:37:56;;;;;;;5.75;1.67;;;26.30;40.60;;;;;;20916354;28;20061;-60
2022/06/02 10:48:16;;;;;;;2.72;1.70;;;26.40;40.30;;;;;;20915223;28;20095;-60
2022/06/02 10:58:36;;;;;;;2.88;1.27;;;27.00;39.10;;;;;;20914996;28;20056;-55
2022/06/02 11:09:11;;;;;;;6.32;1.90;;;26.90;38.20;;;;;;20913417;28;20057;-60
2022/06/02 11:19:50;;;;;;;6.63;1.13;;;26.80;38.00;;;;;;20914581;28;20132;-56
2022/06/02 11:30:20;;;;;;;3.30;1.05;;;27.00;37.50;;;;;;20912439;28;20442;-56
2022/06/02 11:40:50;;;;;;;3.80;1.17;;;27.20;37.10;;;;;;20913187;28;20052;-56
2022/06/02 11:51:22;;;;;;;7.65;1.70;;;27.00;37.20;;;;;;20910031;28;20233;-55
2022/06/02 12:01:30;;;;;;;4.15;1.45;;;27.30;35.90;;;;;;20908486;28;20416;-57
2022/06/02 12:11:53;;;;;;;2.90;1.00;;;27.60;35.00;;;;;;20910949;28;20056;-60
2022/06/02 12:22:05;;;;;;;3.97;1.38;;;27.20;36.40;;;;;;20911372;28;20049;-56
2022/06/02 12:32:25;;;;;;;5.50;1.58;;;27.40;34.60;;;;;;20910673;28;20417;-73
2022/06/02 12:42:34;;;;;;;4.13;1.63;;;28.00;33.90;;;;;;20916280;28;20434;-60
2022/06/02 12:52:56;;;;;;;3.00;1.05;;;28.10;33.60;;;;;;20922264;28;20084;-70
2022/06/02 13:03:19;;;;;;;4.90;1.40;;;28.50;32.90;;;;;;20924073;28;20060;-68
2022/06/02 13:13:47;;;;;;;4.75;1.42;;;28.50;32.30;;;;;;20922783;28;20084;-75
2022/06/02 13:24:16;;;;;;;5.28;1.35;;;28.40;32.30;;;;;;20921590;28;20083;-70
2022/06/02 13:34:55;;;;;;;2.92;1.23;;;28.60;31.60;;;;;;20921225;28;20110;-70
2022/06/02 13:45:15;;;;;;;3.20;1.20;;;28.60;30.60;;;;;;20921496;28;20057;-73
2022/06/02 14:06:34;;;;;;;2.30;1.50;;;28.50;30.50;;;;;;20912044;28;20053;-64
2022/06/02 14:16:47;;;;;;;4.72;1.85;;;28.60;28.40;;;;;;20918274;28;20511;-71
2022/06/02 14:27:01;;;;;;;2.67;1.73;;;28.50;30.10;;;;;;20917893;28;20500;-64
2022/06/02 14:37:20;;;;;;;4.30;1.60;;;28.90;28.80;;;;;;20918143;28;20453;-66
2022/06/02 14:47:47;;;;;;;4.05;1.77;;;28.70;28.20;;;;;;20918005;28;20049;-65
2022/06/02 14:57:58;;;;;;;2.67;1.20;;;28.90;27.10;;;;;;20919681;28;20473;-76
2022/06/02 15:08:02;;;;;;;2.15;1.25;;;29.00;27.00;;;;;;20915186;28;20048;-72
2022/06/02 15:18:33;;;;;;;5.10;3.35;;;29.00;26.30;;;;;;20914041;28;20048;-76
2022/06/02 15:28:50;;;;;;;3.30;1.10;;;29.20;26.20;;;;;;20912896;28;20103;-75
2022/06/02 15:39:11;;;;;;;3.03;1.10;;;29.10;26.80;;;;;;20912130;28;20389;-75
2022/06/02 15:49:45;;;;;;;4.68;1.30;;;28.90;27.40;;;;;;20911743;28;20442;-59
2022/06/02 16:00:06;;;;;;;2.50;1.30;;;28.80;28.20;;;;;;20901996;28;20057;-72
2022/06/02 16:21:16;;;;;;;3.90;1.20;;;28.70;27.10;;;;;;20923273;28;20049;-73
2022/06/02 16:31:51;;;;;;;3.25;1.00;;;28.80;27.50;;;;;;20917882;28;20190;-72
2022/06/02 16:42:02;;;;;;;3.28;1.23;;;28.80;28.10;;;;;;20925667;28;20088;-72
2022/06/02 16:52:28;;;;;;;3.60;1.10;;;28.70;28.50;;;;;;20925538;28;20044;-64
2022/06/02 17:02:59;;;;;;;3.70;0.98;;;28.70;28.50;;;;;;20924179;28;20051;-74
2022/06/02 17:13:06;;;;;;;3.42;1.70;;;28.50;29.70;;;;;;20923869;28;20064;-73
2022/06/02 17:23:28;;;;;;;3.75;1.60;;;28.30;30.20;;;;;;20923129;28;20541;-73
2022/06/02 17:33:35;;;;;;;;;;;28.30;30.30;;;;;;20922035;28;20063;-71
2022/06/02 17:43:58;;;;;;;4.43;1.88;;;28.00;31.00;;;;;;20920924;28;19924;-63
2022/06/02 17:54:12;;;;;;;3.90;1.50;;;28.10;31.20;;;;;;20919677;28;20152;-72
2022/06/02 18:04:21;;;;;;;3.55;1.27;;;27.70;31.50;;;;;;20918645;28;20049;-64
2022/06/02 18:14:28;;;;;;;3.58;1.50;;;27.70;31.50;;;;;;20918290;28;20057;-63
2022/06/02 18:25:03;;;;;;;5.00;1.25;;;27.60;31.60;;;;;;20917152;28;20049;-72
2022/06/02 18:35:32;;;;;;;3.85;1.40;;;27.20;31.80;;;;;;20916833;28;20550;-73
2022/06/02 18:45:42;;;;;;;5.03;1.40;;;26.90;32.20;;;;;;20906599;28;20140;-73
2022/06/02 18:56:03;;;;;;;4.33;1.33;;;26.80;32.40;;;;;;20915303;28;20056;-72
2022/06/02 19:17:23;;;;;;;4.47;2.40;;;26.60;32.60;;;;;;20913728;28;20136;-69
2022/06/02 19:27:53;;;;;;;4.53;2.10;;;26.40;32.60;;;;;;20913173;28;20378;-71
2022/06/02 19:37:58;;;;;;;7.18;2.60;;;26.10;32.70;;;;;;20912232;28;20049;-70
2022/06/02 19:48:09;;;;;;;3.33;1.33;;;26.00;33.00;;;;;;20911699;28;20053;-58
2022/06/02 19:58:43;;;;;;;12.25;8.35;;;26.00;33.30;;;;;;20909814;28;20135;-65
2022/06/02 20:09:29;;;;;;;6.40;2.63;;;26.00;33.10;;;;;;20820177;28;20056;-71
2022/06/02 20:19:38;;;;;;;6.55;4.03;;;25.90;32.50;;;;;;20496308;28;20055;-66
2022/06/02 20:30:17;;;;;;;4.95;3.53;;;25.60;33.90;;;;;;20497001;28;20071;-73
2022/06/02 20:40:58;;;;;;;8.20;1.83;;;25.60;34.30;;;;;;20528711;28;20090;-69
2022/06/02 20:51:05;;;;;;;5.17;1.70;;;25.30;35.30;;;;;;20599549;28;20097;-63
2022/06/02 21:01:35;;;;;;;3.55;1.50;;;25.20;35.60;;;;;;20659175;28;20054;-70
2022/06/02 21:11:38;;;;;;;4.95;2.25;;;25.20;35.60;;;;;;20668431;28;20514;-68
2022/06/02 21:21:58;;;;;;;4.20;2.85;;;24.90;35.80;;;;;;20769203;28;20045;-64
2022/06/02 21:32:19;;;;;;;5.15;2.25;;;25.10;35.50;;;;;;20922791;28;20044;-69
2022/06/02 21:42:31;;;;;;;5.28;1.63;;;24.80;35.90;;;;;;20921550;28;20045;-70
2022/06/02 21:52:54;;;;;;;4.38;1.90;;;24.70;35.90;;;;;;20920587;28;20056;-69
2022/06/02 22:03:11;;;;;;;4.03;2.15;;;24.60;36.10;;;;;;20919433;28;20082;-70
2022/06/02 22:13:50;;;;;;;4.03;1.95;;;24.60;36.30;;;;;;20917606;28;20094;-64
2022/06/02 22:24:10;;;;;;;7.22;2.63;;;24.40;36.70;;;;;;20826360;28;20520;-62
2022/06/02 22:34:35;;;;;;;4.38;2.22;;;24.30;36.90;;;;;;20826370;28;20482;-66
2022/06/02 22:44:55;;;;;;;3.72;1.80;;;24.30;37.00;;;;;;20825425;28;20045;-69
2022/06/02 22:55:00;;;;;;;5.28;2.38;;;24.20;37.00;;;;;;20863720;28;20052;-70
2022/06/02 23:05:26;;;;;;;4.93;2.05;;;24.30;37.00;;;;;;20914856;28;20159;-69
2022/06/02 23:15:58;;;;;;;6.13;2.20;;;24.30;37.20;;;;;;20914496;28;20055;-70
2022/06/02 23:26:10;;;;;;;3.35;2.00;;;24.30;37.20;;;;;;20914233;28;20049;-69
2022/06/02 23:36:35;;;;;;;5.73;2.00;;;24.20;37.20;;;;;;20913731;28;20057;-70
2022/06/02 23:47:02;;;;;;;3.50;1.92;;;24.10;37.30;;;;;;20912850;28;20140;-68
2022/06/02 23:57:21;;;;;;;5.25;1.70;;;24.10;37.50;;;;;;20911748;28;20053;-68
